Star Herdla — LAVD4 — position and weather

sailwx.info

Track history (hours):
 
Tides and Currents Weather Stations Pressure Air Temp Water Temp Dewpoint Dewpoint Depression Visibility Wind Speed Wind Dir Waves Ship Positions

Star Herdla

Last reported at 2017-Jun-29 02:58 UTC. Time now 2017-Jun-29 03:42 UTC.
Position N 49°26' W 123°27'.

Type: Cargo ship. MMSI: 258954000.

Date/timePositionNaut miles runAvg speedWind from/ knotsBaromVisibWave heightAir tempDewpointWater temp
2017-Jun-29 02:58N 49°26' W 123°27'  
2017-Jun-26 11:50N 49°31' W 123°29'0 0.0
2017-Jun-26 11:26N 49°31' W 123°29'0 0.0
2017-Jun-26 09:14N 49°31' W 123°29'0 0.0
2017-Jun-26 07:14N 49°31' W 123°29'0 0.0
2017-Jun-26 06:44N 49°31' W 123°29'0 0.0
2017-Jun-25 19:43N 49°31' W 123°29'0 0.0
2017-Jun-25 19:28N 49°31' W 123°29'1 1.5
2017-Jun-25 19:00N 49°31' W 123°28'2 3.6
2017-Jun-25 18:30N 49°32' W 123°25'10 7.9
2017-Jun-25 17:17N 49°24' W 123°18'414.5
2017-Jun-25 17:00N 49°20' W 123°18'815.9
2017-Jun-25 16:30N 49°12' W 123°20'714.9
2017-Jun-25 16:00N 49°04' W 123°20'713.9
2017-Jun-25 15:30N 48°59' W 123°14'814.3
2017-Jun-25 14:59N 48°54' W 123°05'613.7
2017-Jun-25 14:30N 48°49' W 122°59'1313.1
2017-Jun-25 13:30N 48°40' W 123°15'714.4
2017-Jun-25 13:00N 48°33' W 123°12'714.6
2017-Jun-25 12:31N 48°26' W 123°10'714.4
2017-Jun-25 12:00N 48°22' W 123°19'4 8.0
2017-Jun-25 11:31N 48°20' W 123°24'714.9
2017-Jun-25 11:01N 48°14' W 123°31'814.6
2017-Jun-25 10:28N 48°14' W 123°42'715.6
2017-Jun-25 10:00N 48°14' W 123°53'816.3
2017-Jun-25 09:30N 48°17' W 124°05'815.7
2017-Jun-25 09:00N 48°20' W 124°15'815.3
2017-Jun-25 08:30N 48°23' W 124°26'715.1
2017-Jun-25 08:01N 48°26' W 124°36'714.7
2017-Jun-25 07:30N 48°29' W 124°46'815.0
2017-Jun-25 06:58N 48°28' W 124°59'815.3
2017-Jun-25 06:27N 48°22' W 125°06'715.6
2017-Jun-25 06:01N 48°17' W 125°13'815.5
2017-Jun-25 05:31N 48°12' W 125°23'815.8
2017-Jun-25 05:01N 48°09' W 125°33'815.7
2017-Jun-25 04:30N 48°06' W 125°44'815.4
2017-Jun-25 04:00N 48°03' W 125°55'815.0
2017-Jun-25 03:31N 47°59' W 126°04'611.8
2017-Jun-25 03:00N 47°55' W 126°10'1412.5
2017-Jun-25 01:53N 47°42' W 126°03'712.4
2017-Jun-25 01:21N 47°35' W 125°60'412.0
2017-Jun-25 01:00N 47°31' W 125°59'612.1
2017-Jun-25 00:30N 47°25' W 125°59'911.8
2017-Jun-24 23:45N 47°16' W 125°59'412.1
2017-Jun-24 23:25N 47°12' W 125°59'613.9
2017-Jun-24 23:00N 47°07' W 125°59'714.0
2017-Jun-24 22:30N 46°60' W 125°59'713.7
2017-Jun-24 21:59N 46°52' W 125°59'713.8
2017-Jun-24 21:30N 46°46' W 125°59'713.4
2017-Jun-24 21:00N 46°39' W 125°59'713.3
2017-Jun-24 20:30N 46°33' W 125°59'714.0
2017-Jun-24 20:00N 46°25' W 125°59'713.9
2017-Jun-24 19:30N 46°19' W 125°59'713.8
2017-Jun-24 19:00N 46°12' W 125°59'714.2
2017-Jun-24 18:31N 46°05' W 125°59'714.1
2017-Jun-24 18:00N 45°57' W 125°59'713.8
2017-Jun-24 17:31N 45°51' W 125°59'713.7
2017-Jun-24 17:01N 45°44' W 125°59'714.0
2017-Jun-24 16:30N 45°37' W 125°59'714.8
2017-Jun-24 16:00N 45°29' W 125°58'714.5
2017-Jun-24 15:31N 45°22' W 125°58'714.7
2017-Jun-24 15:01N 45°15' W 125°58'1414.3
2017-Jun-24 14:00N 45°00' W 125°56'713.8
2017-Jun-24 13:31N 44°54' W 125°56'713.8
2017-Jun-24 13:00N 44°47' W 125°56'713.7
2017-Jun-24 12:30N 44°40' W 125°56'913.7
2017-Jun-24 11:50N 44°30' W 125°56'413.8
2017-Jun-24 11:31N 44°26' W 125°56'713.9
2017-Jun-24 11:00N 44°19' W 125°56'713.5
2017-Jun-24 10:30N 44°12' W 125°56'713.3
2017-Jun-24 10:00N 44°06' W 125°56'612.9
2017-Jun-24 09:30N 43°59' W 125°56'613.1
2017-Jun-24 09:00N 43°53' W 125°56'713.1
2017-Jun-24 08:30N 43°46' W 125°56'713.4
2017-Jun-24 08:00N 43°39' W 125°56'713.6
2017-Jun-24 07:30N 43°33' W 125°56'713.3
2017-Jun-24 07:00N 43°26' W 125°57'713.3
2017-Jun-24 06:30N 43°19' W 125°57'713.6
2017-Jun-24 06:00N 43°13' W 125°57'713.5
2017-Jun-24 05:30N 43°06' W 125°57'713.1
2017-Jun-24 05:00N 42°59' W 125°57'713.2
2017-Jun-24 04:30N 42°53' W 125°57'713.7
2017-Jun-24 04:00N 42°46' W 125°57'713.7
2017-Jun-24 03:30N 42°39' W 125°56'713.5
2017-Jun-24 03:00N 42°32' W 125°56'713.2
2017-Jun-24 02:30N 42°26' W 125°55'612.7
2017-Jun-24 02:00N 42°19' W 125°55'612.5
2017-Jun-24 01:30N 42°13' W 125°54'812.7
2017-Jun-24 00:53N 42°05' W 125°54'512.8
2017-Jun-24 00:30N 42°00' W 125°55'613.1
2017-Jun-24 00:00N 41°54' W 125°57'613.0
2017-Jun-23 23:30N 41°48' W 125°58'612.4
2017-Jun-23 23:00N 41°41' W 125°59'612.0
2017-Jun-23 22:30N 41°35' W 126°00'4310.7
2017-Jun-23 18:29N 40°53' W 126°09'4 8.9
2017-Jun-23 18:00N 40°49' W 126°11'5 9.7
2017-Jun-23 17:30N 40°45' W 126°15'4 8.7
2017-Jun-23 17:00N 40°42' W 126°18'5 9.1
2017-Jun-23 16:30N 40°38' W 126°22'4 8.5
2017-Jun-23 16:00N 40°34' W 126°24'112 5.6
2017-Jun-22 20:09N 38°44' W 126°00'2 5.6
2017-Jun-22 19:46N 38°42' W 125°58'1 5.0
2017-Jun-22 19:30N 38°41' W 125°57'80 7.2
2017-Jun-22 08:20N 38°16' W 124°20'5 9.0
2017-Jun-22 07:45N 38°16' W 124°13'3 8.8
2017-Jun-22 07:24N 38°15' W 124°09'4 8.9
2017-Jun-22 07:00N 38°15' W 124°05'4 8.6
2017-Jun-22 06:30N 38°14' W 123°59'4 8.4
2017-Jun-22 06:00N 38°14' W 123°54'5 9.9
2017-Jun-22 05:30N 38°14' W 123°48'510.2
2017-Jun-22 05:00N 38°13' W 123°41'611.1
2017-Jun-22 04:30N 38°12' W 123°35'611.9
2017-Jun-22 04:00N 38°11' W 123°27'612.6
2017-Jun-22 03:30N 38°08' W 123°20'714.0
2017-Jun-22 03:00N 38°03' W 123°14'713.9
2017-Jun-22 02:30N 37°58' W 123°07'714.0
2017-Jun-22 02:00N 37°55' W 122°60'714.0
2017-Jun-22 01:30N 37°51' W 122°52'714.3
2017-Jun-22 00:59N 37°47' W 122°44'4 7.6
2017-Jun-22 00:30N 37°46' W 122°40'612.2
2017-Jun-22 00:01N 37°48' W 122°33'612.7
2017-Jun-21 23:30N 37°51' W 122°25'613.0
2017-Jun-21 23:00N 37°57' W 122°27'714.0
2017-Jun-21 22:30N 38°02' W 122°21'812.3
2017-Jun-21 21:50N 38°03' W 122°11'13 8.9
2017-Jun-21 20:22N 38°03' W 121°54'2 5.4
2017-Jun-21 19:57N 38°02' W 121°51'  
Track history (hours):
 
Tides and Currents Weather Stations Pressure Air Temp Water Temp Dewpoint Dewpoint Depression Visibility Wind Speed Wind Dir Waves Ship Positions

Star Herdla

Last reported at 2017-Jun-29 02:58 UTC. Time now 2017-Jun-29 03:42 UTC.
Position N 49°26' W 123°27'.

Type: Cargo ship. MMSI: 258954000.

Date/timePositionNaut miles runAvg speedWind from/ knotsBaromVisibWave heightAir tempDewpointWater temp
2017-Jun-29 02:58N 49°26' W 123°27'  
2017-Jun-26 11:50N 49°31' W 123°29'0 0.0
2017-Jun-26 11:26N 49°31' W 123°29'0 0.0
2017-Jun-26 09:14N 49°31' W 123°29'0 0.0
2017-Jun-26 07:14N 49°31' W 123°29'0 0.0
2017-Jun-26 06:44N 49°31' W 123°29'0 0.0
2017-Jun-25 19:43N 49°31' W 123°29'0 0.0
2017-Jun-25 19:28N 49°31' W 123°29'1 1.5
2017-Jun-25 19:00N 49°31' W 123°28'2 3.6
2017-Jun-25 18:30N 49°32' W 123°25'10 7.9
2017-Jun-25 17:17N 49°24' W 123°18'414.5
2017-Jun-25 17:00N 49°20' W 123°18'815.9
2017-Jun-25 16:30N 49°12' W 123°20'714.9
2017-Jun-25 16:00N 49°04' W 123°20'713.9
2017-Jun-25 15:30N 48°59' W 123°14'814.3
2017-Jun-25 14:59N 48°54' W 123°05'613.7
2017-Jun-25 14:30N 48°49' W 122°59'1313.1
2017-Jun-25 13:30N 48°40' W 123°15'714.4
2017-Jun-25 13:00N 48°33' W 123°12'714.6
2017-Jun-25 12:31N 48°26' W 123°10'714.4
2017-Jun-25 12:00N 48°22' W 123°19'4 8.0
2017-Jun-25 11:31N 48°20' W 123°24'714.9
2017-Jun-25 11:01N 48°14' W 123°31'814.6
2017-Jun-25 10:28N 48°14' W 123°42'715.6
2017-Jun-25 10:00N 48°14' W 123°53'816.3
2017-Jun-25 09:30N 48°17' W 124°05'815.7
2017-Jun-25 09:00N 48°20' W 124°15'815.3
2017-Jun-25 08:30N 48°23' W 124°26'715.1
2017-Jun-25 08:01N 48°26' W 124°36'714.7
2017-Jun-25 07:30N 48°29' W 124°46'815.0
2017-Jun-25 06:58N 48°28' W 124°59'815.3
2017-Jun-25 06:27N 48°22' W 125°06'715.6
2017-Jun-25 06:01N 48°17' W 125°13'815.5
2017-Jun-25 05:31N 48°12' W 125°23'815.8
2017-Jun-25 05:01N 48°09' W 125°33'815.7
2017-Jun-25 04:30N 48°06' W 125°44'815.4
2017-Jun-25 04:00N 48°03' W 125°55'815.0
2017-Jun-25 03:31N 47°59' W 126°04'611.8
2017-Jun-25 03:00N 47°55' W 126°10'1412.5
2017-Jun-25 01:53N 47°42' W 126°03'712.4
2017-Jun-25 01:21N 47°35' W 125°60'412.0
2017-Jun-25 01:00N 47°31' W 125°59'612.1
2017-Jun-25 00:30N 47°25' W 125°59'911.8
2017-Jun-24 23:45N 47°16' W 125°59'412.1
2017-Jun-24 23:25N 47°12' W 125°59'613.9
2017-Jun-24 23:00N 47°07' W 125°59'714.0
2017-Jun-24 22:30N 46°60' W 125°59'713.7
2017-Jun-24 21:59N 46°52' W 125°59'713.8
2017-Jun-24 21:30N 46°46' W 125°59'713.4
2017-Jun-24 21:00N 46°39' W 125°59'713.3
2017-Jun-24 20:30N 46°33' W 125°59'714.0
2017-Jun-24 20:00N 46°25' W 125°59'713.9
2017-Jun-24 19:30N 46°19' W 125°59'713.8
2017-Jun-24 19:00N 46°12' W 125°59'714.2
2017-Jun-24 18:31N 46°05' W 125°59'714.1
2017-Jun-24 18:00N 45°57' W 125°59'713.8
2017-Jun-24 17:31N 45°51' W 125°59'713.7
2017-Jun-24 17:01N 45°44' W 125°59'714.0
2017-Jun-24 16:30N 45°37' W 125°59'714.8
2017-Jun-24 16:00N 45°29' W 125°58'714.5
2017-Jun-24 15:31N 45°22' W 125°58'714.7
2017-Jun-24 15:01N 45°15' W 125°58'1414.3
2017-Jun-24 14:00N 45°00' W 125°56'713.8
2017-Jun-24 13:31N 44°54' W 125°56'713.8
2017-Jun-24 13:00N 44°47' W 125°56'713.7
2017-Jun-24 12:30N 44°40' W 125°56'913.7
2017-Jun-24 11:50N 44°30' W 125°56'413.8
2017-Jun-24 11:31N 44°26' W 125°56'713.9
2017-Jun-24 11:00N 44°19' W 125°56'713.5
2017-Jun-24 10:30N 44°12' W 125°56'713.3
2017-Jun-24 10:00N 44°06' W 125°56'612.9
2017-Jun-24 09:30N 43°59' W 125°56'613.1
2017-Jun-24 09:00N 43°53' W 125°56'713.1
2017-Jun-24 08:30N 43°46' W 125°56'713.4
2017-Jun-24 08:00N 43°39' W 125°56'713.6
2017-Jun-24 07:30N 43°33' W 125°56'713.3
2017-Jun-24 07:00N 43°26' W 125°57'713.3
2017-Jun-24 06:30N 43°19' W 125°57'713.6
2017-Jun-24 06:00N 43°13' W 125°57'713.5
2017-Jun-24 05:30N 43°06' W 125°57'713.1
2017-Jun-24 05:00N 42°59' W 125°57'713.2
2017-Jun-24 04:30N 42°53' W 125°57'713.7
2017-Jun-24 04:00N 42°46' W 125°57'713.7
2017-Jun-24 03:30N 42°39' W 125°56'713.5
2017-Jun-24 03:00N 42°32' W 125°56'713.2
2017-Jun-24 02:30N 42°26' W 125°55'612.7
2017-Jun-24 02:00N 42°19' W 125°55'612.5
2017-Jun-24 01:30N 42°13' W 125°54'812.7
2017-Jun-24 00:53N 42°05' W 125°54'512.8
2017-Jun-24 00:30N 42°00' W 125°55'613.1
2017-Jun-24 00:00N 41°54' W 125°57'613.0
2017-Jun-23 23:30N 41°48' W 125°58'612.4
2017-Jun-23 23:00N 41°41' W 125°59'612.0
2017-Jun-23 22:30N 41°35' W 126°00'4310.7
2017-Jun-23 18:29N 40°53' W 126°09'4 8.9
2017-Jun-23 18:00N 40°49' W 126°11'5 9.7
2017-Jun-23 17:30N 40°45' W 126°15'4 8.7
2017-Jun-23 17:00N 40°42' W 126°18'5 9.1
2017-Jun-23 16:30N 40°38' W 126°22'4 8.5
2017-Jun-23 16:00N 40°34' W 126°24'112 5.6
2017-Jun-22 20:09N 38°44' W 126°00'2 5.6
2017-Jun-22 19:46N 38°42' W 125°58'1 5.0
2017-Jun-22 19:30N 38°41' W 125°57'80 7.2
2017-Jun-22 08:20N 38°16' W 124°20'5 9.0
2017-Jun-22 07:45N 38°16' W 124°13'3 8.8
2017-Jun-22 07:24N 38°15' W 124°09'4 8.9
2017-Jun-22 07:00N 38°15' W 124°05'4 8.6
2017-Jun-22 06:30N 38°14' W 123°59'4 8.4
2017-Jun-22 06:00N 38°14' W 123°54'5 9.9
2017-Jun-22 05:30N 38°14' W 123°48'510.2
2017-Jun-22 05:00N 38°13' W 123°41'611.1
2017-Jun-22 04:30N 38°12' W 123°35'611.9
2017-Jun-22 04:00N 38°11' W 123°27'612.6
2017-Jun-22 03:30N 38°08' W 123°20'714.0
2017-Jun-22 03:00N 38°03' W 123°14'713.9
2017-Jun-22 02:30N 37°58' W 123°07'714.0
2017-Jun-22 02:00N 37°55' W 122°60'714.0
2017-Jun-22 01:30N 37°51' W 122°52'714.3
2017-Jun-22 00:59N 37°47' W 122°44'4 7.6
2017-Jun-22 00:30N 37°46' W 122°40'612.2
2017-Jun-22 00:01N 37°48' W 122°33'612.7
2017-Jun-21 23:30N 37°51' W 122°25'613.0
2017-Jun-21 23:00N 37°57' W 122°27'714.0
2017-Jun-21 22:30N 38°02' W 122°21'812.3
2017-Jun-21 21:50N 38°03' W 122°11'13 8.9
2017-Jun-21 20:22N 38°03' W 121°54'2 5.4
2017-Jun-21 19:57N 38°02' W 121°51'  

Dump ship's entire track history